Sensation — C6FM8 — position and weather

sailwx.info

Track history (hours):
 
Tides and Currents Weather Stations Pressure Air Temp Water Temp Dewpoint Dewpoint Depression Visibility Wind Speed Wind Dir Waves Ship Positions

Sensation

Last reported at 2017-Jul-20 23:00 UTC. Time now 2017-Jul-21 02:31 UTC.
Position N 19°36' W 081°54'.

Type: Ship. MMSI: 309697000.

Wind from 040 at 10 knots

Barometer 1013.0 mb
Air temperature 29.0 ° C
Visibility: greater than 10.8 NM
Dewpoint 27.6 ° C
Water temperature 27.0 ° C

Date/timePositionNaut miles runAvg speedWind from/ knotsBaromVisibWave heightAir tempDewpointWater temp
2017-Jul-20 23:00N 19°36' W 081°54'159 8.8 040 / 101013.010.8 29.027.627.0
2017-Jul-20 05:00N 18°54' W 079°12'235 6.7 050 / 101015.0 28.026.627.0
2017-Jul-18 18:00N 21°18' W 075°54'12918.5 050 / 281016.0 5.4 29.027.627.0
2017-Jul-18 11:00N 22°24' W 077°54'19817.7 080 / 231015.0 5.4 28.026.727.4
2017-Jul-17 23:50N 25°13' W 079°47'515.0
2017-Jul-17 23:30N 25°18' W 079°48'815.1
2017-Jul-17 23:00N 25°24' W 079°52'715.0
2017-Jul-17 22:30N 25°32' W 079°54'815.4
2017-Jul-17 22:00N 25°39' W 079°57'713.3
2017-Jul-17 21:30N 25°45' W 079°60'611.4
2017-Jul-17 21:01N 25°46' W 080°06'4 7.8
2017-Jul-17 20:31N 25°47' W 080°10'0 0.0
2017-Jul-17 20:00N 25°47' W 080°10'0 0.0
2017-Jul-17 19:30N 25°47' W 080°10'0 0.0
2017-Jul-17 19:00N 25°47' W 080°10'0 0.0
2017-Jul-17 18:30N 25°47' W 080°10'0 0.0
2017-Jul-17 18:00N 25°47' W 080°10'0 0.0
2017-Jul-17 17:30N 25°47' W 080°10'0 0.0
2017-Jul-17 17:00N 25°47' W 080°10'0 0.0
2017-Jul-17 16:30N 25°47' W 080°10'0 0.0
2017-Jul-17 15:58N 25°47' W 080°10'0 0.0
2017-Jul-17 15:28N 25°47' W 080°10'0 0.0
2017-Jul-17 14:58N 25°47' W 080°10'0 0.0
2017-Jul-17 14:28N 25°47' W 080°10'0 0.0
2017-Jul-17 13:58N 25°47' W 080°10'0 0.0
2017-Jul-17 13:28N 25°47' W 080°10'0 0.0
2017-Jul-17 12:58N 25°47' W 080°10'0 0.0
2017-Jul-17 12:28N 25°47' W 080°10'0 0.0
2017-Jul-17 12:00N 25°47' W 080°10'0 0.4
2017-Jul-17 11:30N 25°47' W 080°10'1 2.3
2017-Jul-17 11:00N 25°46' W 080°09'510.6
2017-Jul-17 10:30N 25°46' W 080°03'611.5
2017-Jul-17 10:00N 25°43' W 079°58'612.6
2017-Jul-17 09:31N 25°37' W 079°57'714.8
2017-Jul-17 09:01N 25°30' W 079°56'714.9
2017-Jul-17 08:31N 25°22' W 079°56'815.1
2017-Jul-17 08:00N 25°15' W 079°58'4314.3
2017-Jul-17 05:00N 24°36' W 080°18'9415.6 170 / 151016.0 28.026.627.0
2017-Jul-16 23:00N 23°42' W 081°42'19115.9 030 / 41012.010.8 29.026.227.0
2017-Jul-16 11:00N 22°18' W 084°48'15419.0 040 / 21012.010.8 26.024.628.4
2017-Jul-16 02:54N 20°40' W 086°55'718.5
2017-Jul-16 02:31N 20°33' W 086°59'5 8.7
2017-Jul-16 01:59N 20°29' W 086°59'0 0.3
2017-Jul-16 01:29N 20°29' W 086°59'0 0.0
2017-Jul-16 00:59N 20°29' W 086°59'0 0.0
2017-Jul-16 00:29N 20°29' W 086°59'0 0.0
2017-Jul-15 23:59N 20°29' W 086°59'0 0.0
2017-Jul-15 23:29N 20°29' W 086°59'0 0.0
2017-Jul-15 23:00N 20°29' W 086°59'0 0.0
2017-Jul-15 22:30N 20°29' W 086°59'0 0.0
2017-Jul-15 22:00N 20°29' W 086°59'0 0.0
2017-Jul-15 21:30N 20°29' W 086°59'0 0.0
2017-Jul-15 21:00N 20°29' W 086°59'0 0.0
2017-Jul-15 20:30N 20°29' W 086°59'0 0.0
2017-Jul-15 20:00N 20°29' W 086°59'0 0.0
2017-Jul-15 19:30N 20°29' W 086°59'0 0.0
2017-Jul-15 19:00N 20°29' W 086°59'0 0.0
2017-Jul-15 18:30N 20°29' W 086°59'0 0.0
2017-Jul-15 18:00N 20°29' W 086°59'0 0.0
2017-Jul-15 17:30N 20°29' W 086°59'0 0.0
2017-Jul-15 17:00N 20°29' W 086°59'0 0.0
2017-Jul-15 16:30N 20°29' W 086°59'0 0.0
2017-Jul-15 16:01N 20°29' W 086°59'0 0.8
2017-Jul-15 15:31N 20°29' W 086°59'4 7.8
2017-Jul-15 15:01N 20°33' W 086°58'16416.4
2017-Jul-15 05:00N 22°24' W 084°48'10220.5 090 / 221016.0 28.026.627.0
2017-Jul-15 00:00N 23°24' W 083°18'160 8.9 090 / 201016.010.8 31.028.327.0
2017-Jul-14 06:00N 24°24' W 080°36'5411.7 090 / 301016.0 28.026.627.0
2017-Jul-14 01:26N 25°01' W 079°54'613.0
2017-Jul-14 01:00N 25°07' W 079°52'612.9
2017-Jul-14 00:31N 25°13' W 079°50'612.6
2017-Jul-14 00:00N 25°19' W 079°48'612.5
2017-Jul-13 23:30N 25°25' W 079°48'612.4
2017-Jul-13 23:01N 25°31' W 079°48'611.4
2017-Jul-13 22:30N 25°36' W 079°51'612.6
2017-Jul-13 22:00N 25°40' W 079°57'612.8
2017-Jul-13 21:30N 25°44' W 080°02'510.9
2017-Jul-13 21:00N 25°46' W 080°08'3 6.1
2017-Jul-13 20:30N 25°47' W 080°11'1 1.6
2017-Jul-13 20:00N 25°47' W 080°10'0 0.0
2017-Jul-13 19:27N 25°47' W 080°10'0 0.0
2017-Jul-13 19:00N 25°47' W 080°10'0 0.0
2017-Jul-13 18:30N 25°47' W 080°10'0 0.0
2017-Jul-13 18:00N 25°47' W 080°10'0 0.0
2017-Jul-13 17:30N 25°47' W 080°10'0 0.0
2017-Jul-13 17:00N 25°47' W 080°10'0 0.0
2017-Jul-13 16:30N 25°47' W 080°10'0 0.0
2017-Jul-13 16:00N 25°47' W 080°10'0 0.0
2017-Jul-13 15:30N 25°47' W 080°10'0 0.0
2017-Jul-13 15:00N 25°47' W 080°10'0 0.0
2017-Jul-13 14:30N 25°47' W 080°10'0 0.0
2017-Jul-13 14:00N 25°47' W 080°10'0 0.0
2017-Jul-13 13:30N 25°47' W 080°10'0 0.0
2017-Jul-13 13:00N 25°47' W 080°10'0 0.0
2017-Jul-13 12:30N 25°47' W 080°10'0 0.0
2017-Jul-13 12:00N 25°47' W 080°10'0 0.0
2017-Jul-13 11:30N 25°47' W 080°10'2 4.3
2017-Jul-13 11:00N 25°46' W 080°08'611.9
2017-Jul-13 10:30N 25°47' W 080°02'510.0
2017-Jul-13 10:00N 25°50' W 079°57'510.5
2017-Jul-13 09:30N 25°53' W 079°52'612.0
2017-Jul-13 09:00N 25°56' W 079°46'612.5
2017-Jul-13 08:30N 25°58' W 079°40'612.1
2017-Jul-13 07:59N 26°03' W 079°36'612.8
2017-Jul-13 07:30N 26°07' W 079°30'713.5
2017-Jul-13 07:00N 26°10' W 079°24'714.1
2017-Jul-13 06:30N 26°13' W 079°16'2013.2
2017-Jul-13 05:00N 26°12' W 078°54'9115.2 090 / 171016.0 28.026.627.0
2017-Jul-12 23:00N 25°42' W 077°18'9716.1 090 / 221013.0 5.4 29.027.627.0
2017-Jul-12 17:00N 25°12' W 075°36'9315.6 090 / 201016.0 5.4 29.027.627.0
2017-Jul-12 11:00N 24°18' W 074°12'10521.1 070 / 251012.010.8 28.026.627.0
2017-Jul-12 06:00N 23°06' W 072°48'5714.3 150 / 101016.0 28.026.627.0
2017-Jul-12 02:00N 22°30' W 072°00'4120.4 260 / 31014.010.8 29.026.227.0
2017-Jul-12 00:00N 22°00' W 071°30'8 0.6 220 / 61013.010.8 31.026.927.0
2017-Jul-11 11:00N 22°06' W 071°36'10217.1 010 / 81012.010.8 27.025.627.0
2017-Jul-11 05:00N 23°06' W 073°06'11022.0 030 / 221015.0 28.026.627.0
2017-Jul-11 00:00N 23°54' W 074°54'   030 / 311014.0 5.4 31.026.927.0
Track history (hours):
 
Tides and Currents Weather Stations Pressure Air Temp Water Temp Dewpoint Dewpoint Depression Visibility Wind Speed Wind Dir Waves Ship Positions

Sensation

Last reported at 2017-Jul-20 23:00 UTC. Time now 2017-Jul-21 02:31 UTC.
Position N 19°36' W 081°54'.

Type: Ship. MMSI: 309697000.

Wind from 040 at 10 knots

Barometer 1013.0 mb
Air temperature 29.0 ° C
Visibility: greater than 10.8 NM
Dewpoint 27.6 ° C
Water temperature 27.0 ° C

Date/timePositionNaut miles runAvg speedWind from/ knotsBaromVisibWave heightAir tempDewpointWater temp
2017-Jul-20 23:00N 19°36' W 081°54'159 8.8 040 / 101013.010.8 29.027.627.0
2017-Jul-20 05:00N 18°54' W 079°12'235 6.7 050 / 101015.0 28.026.627.0
2017-Jul-18 18:00N 21°18' W 075°54'12918.5 050 / 281016.0 5.4 29.027.627.0
2017-Jul-18 11:00N 22°24' W 077°54'19817.7 080 / 231015.0 5.4 28.026.727.4
2017-Jul-17 23:50N 25°13' W 079°47'515.0
2017-Jul-17 23:30N 25°18' W 079°48'815.1
2017-Jul-17 23:00N 25°24' W 079°52'715.0
2017-Jul-17 22:30N 25°32' W 079°54'815.4
2017-Jul-17 22:00N 25°39' W 079°57'713.3
2017-Jul-17 21:30N 25°45' W 079°60'611.4
2017-Jul-17 21:01N 25°46' W 080°06'4 7.8
2017-Jul-17 20:31N 25°47' W 080°10'0 0.0
2017-Jul-17 20:00N 25°47' W 080°10'0 0.0
2017-Jul-17 19:30N 25°47' W 080°10'0 0.0
2017-Jul-17 19:00N 25°47' W 080°10'0 0.0
2017-Jul-17 18:30N 25°47' W 080°10'0 0.0
2017-Jul-17 18:00N 25°47' W 080°10'0 0.0
2017-Jul-17 17:30N 25°47' W 080°10'0 0.0
2017-Jul-17 17:00N 25°47' W 080°10'0 0.0
2017-Jul-17 16:30N 25°47' W 080°10'0 0.0
2017-Jul-17 15:58N 25°47' W 080°10'0 0.0
2017-Jul-17 15:28N 25°47' W 080°10'0 0.0
2017-Jul-17 14:58N 25°47' W 080°10'0 0.0
2017-Jul-17 14:28N 25°47' W 080°10'0 0.0
2017-Jul-17 13:58N 25°47' W 080°10'0 0.0
2017-Jul-17 13:28N 25°47' W 080°10'0 0.0
2017-Jul-17 12:58N 25°47' W 080°10'0 0.0
2017-Jul-17 12:28N 25°47' W 080°10'0 0.0
2017-Jul-17 12:00N 25°47' W 080°10'0 0.4
2017-Jul-17 11:30N 25°47' W 080°10'1 2.3
2017-Jul-17 11:00N 25°46' W 080°09'510.6
2017-Jul-17 10:30N 25°46' W 080°03'611.5
2017-Jul-17 10:00N 25°43' W 079°58'612.6
2017-Jul-17 09:31N 25°37' W 079°57'714.8
2017-Jul-17 09:01N 25°30' W 079°56'714.9
2017-Jul-17 08:31N 25°22' W 079°56'815.1
2017-Jul-17 08:00N 25°15' W 079°58'4314.3
2017-Jul-17 05:00N 24°36' W 080°18'9415.6 170 / 151016.0 28.026.627.0
2017-Jul-16 23:00N 23°42' W 081°42'19115.9 030 / 41012.010.8 29.026.227.0
2017-Jul-16 11:00N 22°18' W 084°48'15419.0 040 / 21012.010.8 26.024.628.4
2017-Jul-16 02:54N 20°40' W 086°55'718.5
2017-Jul-16 02:31N 20°33' W 086°59'5 8.7
2017-Jul-16 01:59N 20°29' W 086°59'0 0.3
2017-Jul-16 01:29N 20°29' W 086°59'0 0.0
2017-Jul-16 00:59N 20°29' W 086°59'0 0.0
2017-Jul-16 00:29N 20°29' W 086°59'0 0.0
2017-Jul-15 23:59N 20°29' W 086°59'0 0.0
2017-Jul-15 23:29N 20°29' W 086°59'0 0.0
2017-Jul-15 23:00N 20°29' W 086°59'0 0.0
2017-Jul-15 22:30N 20°29' W 086°59'0 0.0
2017-Jul-15 22:00N 20°29' W 086°59'0 0.0
2017-Jul-15 21:30N 20°29' W 086°59'0 0.0
2017-Jul-15 21:00N 20°29' W 086°59'0 0.0
2017-Jul-15 20:30N 20°29' W 086°59'0 0.0
2017-Jul-15 20:00N 20°29' W 086°59'0 0.0
2017-Jul-15 19:30N 20°29' W 086°59'0 0.0
2017-Jul-15 19:00N 20°29' W 086°59'0 0.0
2017-Jul-15 18:30N 20°29' W 086°59'0 0.0
2017-Jul-15 18:00N 20°29' W 086°59'0 0.0
2017-Jul-15 17:30N 20°29' W 086°59'0 0.0
2017-Jul-15 17:00N 20°29' W 086°59'0 0.0
2017-Jul-15 16:30N 20°29' W 086°59'0 0.0
2017-Jul-15 16:01N 20°29' W 086°59'0 0.8
2017-Jul-15 15:31N 20°29' W 086°59'4 7.8
2017-Jul-15 15:01N 20°33' W 086°58'16416.4
2017-Jul-15 05:00N 22°24' W 084°48'10220.5 090 / 221016.0 28.026.627.0
2017-Jul-15 00:00N 23°24' W 083°18'160 8.9 090 / 201016.010.8 31.028.327.0
2017-Jul-14 06:00N 24°24' W 080°36'5411.7 090 / 301016.0 28.026.627.0
2017-Jul-14 01:26N 25°01' W 079°54'613.0
2017-Jul-14 01:00N 25°07' W 079°52'612.9
2017-Jul-14 00:31N 25°13' W 079°50'612.6
2017-Jul-14 00:00N 25°19' W 079°48'612.5
2017-Jul-13 23:30N 25°25' W 079°48'612.4
2017-Jul-13 23:01N 25°31' W 079°48'611.4
2017-Jul-13 22:30N 25°36' W 079°51'612.6
2017-Jul-13 22:00N 25°40' W 079°57'612.8
2017-Jul-13 21:30N 25°44' W 080°02'510.9
2017-Jul-13 21:00N 25°46' W 080°08'3 6.1
2017-Jul-13 20:30N 25°47' W 080°11'1 1.6
2017-Jul-13 20:00N 25°47' W 080°10'0 0.0
2017-Jul-13 19:27N 25°47' W 080°10'0 0.0
2017-Jul-13 19:00N 25°47' W 080°10'0 0.0
2017-Jul-13 18:30N 25°47' W 080°10'0 0.0
2017-Jul-13 18:00N 25°47' W 080°10'0 0.0
2017-Jul-13 17:30N 25°47' W 080°10'0 0.0
2017-Jul-13 17:00N 25°47' W 080°10'0 0.0
2017-Jul-13 16:30N 25°47' W 080°10'0 0.0
2017-Jul-13 16:00N 25°47' W 080°10'0 0.0
2017-Jul-13 15:30N 25°47' W 080°10'0 0.0
2017-Jul-13 15:00N 25°47' W 080°10'0 0.0
2017-Jul-13 14:30N 25°47' W 080°10'0 0.0
2017-Jul-13 14:00N 25°47' W 080°10'0 0.0
2017-Jul-13 13:30N 25°47' W 080°10'0 0.0
2017-Jul-13 13:00N 25°47' W 080°10'0 0.0
2017-Jul-13 12:30N 25°47' W 080°10'0 0.0
2017-Jul-13 12:00N 25°47' W 080°10'0 0.0
2017-Jul-13 11:30N 25°47' W 080°10'2 4.3
2017-Jul-13 11:00N 25°46' W 080°08'611.9
2017-Jul-13 10:30N 25°47' W 080°02'510.0
2017-Jul-13 10:00N 25°50' W 079°57'510.5
2017-Jul-13 09:30N 25°53' W 079°52'612.0
2017-Jul-13 09:00N 25°56' W 079°46'612.5
2017-Jul-13 08:30N 25°58' W 079°40'612.1
2017-Jul-13 07:59N 26°03' W 079°36'612.8
2017-Jul-13 07:30N 26°07' W 079°30'713.5
2017-Jul-13 07:00N 26°10' W 079°24'714.1
2017-Jul-13 06:30N 26°13' W 079°16'2013.2
2017-Jul-13 05:00N 26°12' W 078°54'9115.2 090 / 171016.0 28.026.627.0
2017-Jul-12 23:00N 25°42' W 077°18'9716.1 090 / 221013.0 5.4 29.027.627.0
2017-Jul-12 17:00N 25°12' W 075°36'9315.6 090 / 201016.0 5.4 29.027.627.0
2017-Jul-12 11:00N 24°18' W 074°12'10521.1 070 / 251012.010.8 28.026.627.0
2017-Jul-12 06:00N 23°06' W 072°48'5714.3 150 / 101016.0 28.026.627.0
2017-Jul-12 02:00N 22°30' W 072°00'4120.4 260 / 31014.010.8 29.026.227.0
2017-Jul-12 00:00N 22°00' W 071°30'8 0.6 220 / 61013.010.8 31.026.927.0
2017-Jul-11 11:00N 22°06' W 071°36'10217.1 010 / 81012.010.8 27.025.627.0
2017-Jul-11 05:00N 23°06' W 073°06'11022.0 030 / 221015.0 28.026.627.0
2017-Jul-11 00:00N 23°54' W 074°54'   030 / 311014.0 5.4 31.026.927.0

Dump ship's entire track history